sensor_id;sensor_type;location;lat;lon;timestamp;P1;durP1;ratioP1;P2;durP2;ratioP2
15067;SDS011;7633;60.024;18.770;2023-05-07T00:01:18;1.30;;;1.20;;
15067;SDS011;7633;60.024;18.770;2023-05-07T00:03:55;1.80;;;1.10;;
15067;SDS011;7633;60.024;18.770;2023-05-07T00:06:31;3.30;;;1.40;;
15067;SDS011;7633;60.024;18.770;2023-05-07T00:09:06;1.23;;;1.13;;
15067;SDS011;7633;60.024;18.770;2023-05-07T00:11:41;2.03;;;1.30;;
15067;SDS011;7633;60.024;18.770;2023-05-07T00:14:14;1.43;;;1.10;;
15067;SDS011;7633;60.024;18.770;2023-05-07T00:16:46;2.27;;;1.30;;
15067;SDS011;7633;60.024;18.770;2023-05-07T00:19:19;1.50;;;1.10;;
15067;SDS011;7633;60.024;18.770;2023-05-07T00:21:48;1.60;;;1.20;;
15067;SDS011;7633;60.024;18.770;2023-05-07T00:24:21;2.30;;;1.00;;
15067;SDS011;7633;60.024;18.770;2023-05-07T00:26:51;1.73;;;1.20;;
15067;SDS011;7633;60.024;18.770;2023-05-07T00:29:20;1.37;;;0.97;;
15067;SDS011;7633;60.024;18.770;2023-05-07T00:31:55;0.90;;;0.90;;
15067;SDS011;7633;60.024;18.770;2023-05-07T00:34:29;1.10;;;1.00;;
15067;SDS011;7633;60.024;18.770;2023-05-07T00:37:01;1.23;;;1.07;;
15067;SDS011;7633;60.024;18.770;2023-05-07T00:39:31;1.77;;;1.10;;
15067;SDS011;7633;60.024;18.770;2023-05-07T00:41:59;1.07;;;1.07;;
15067;SDS011;7633;60.024;18.770;2023-05-07T00:44:26;1.20;;;1.10;;
15067;SDS011;7633;60.024;18.770;2023-05-07T00:46:55;2.73;;;1.23;;
15067;SDS011;7633;60.024;18.770;2023-05-07T00:49:24;1.17;;;1.07;;
15067;SDS011;7633;60.024;18.770;2023-05-07T00:51:54;1.50;;;1.30;;
15067;SDS011;7633;60.024;18.770;2023-05-07T00:54:24;1.43;;;1.07;;
15067;SDS011;7633;60.024;18.770;2023-05-07T00:56:58;1.53;;;1.10;;
15067;SDS011;7633;60.024;18.770;2023-05-07T00:59:32;1.23;;;1.10;;
15067;SDS011;7633;60.024;18.770;2023-05-07T01:02:01;1.50;;;1.37;;
15067;SDS011;7633;60.024;18.770;2023-05-07T01:04:32;1.43;;;1.33;;
15067;SDS011;7633;60.024;18.770;2023-05-07T01:07:02;1.97;;;1.10;;
15067;SDS011;7633;60.024;18.770;2023-05-07T01:09:30;1.23;;;1.13;;
15067;SDS011;7633;60.024;18.770;2023-05-07T01:12:00;2.07;;;1.23;;
15067;SDS011;7633;60.024;18.770;2023-05-07T01:14:32;1.20;;;1.10;;
15067;SDS011;7633;60.024;18.770;2023-05-07T01:17:08;2.30;;;1.30;;
15067;SDS011;7633;60.024;18.770;2023-05-07T01:19:40;1.50;;;1.40;;
15067;SDS011;7633;60.024;18.770;2023-05-07T01:22:08;1.73;;;1.30;;
15067;SDS011;7633;60.024;18.770;2023-05-07T01:24:38;1.57;;;1.10;;
15067;SDS011;7633;60.024;18.770;2023-05-07T01:27:06;2.37;;;1.20;;
15067;SDS011;7633;60.024;18.770;2023-05-07T01:29:35;1.67;;;0.97;;
15067;SDS011;7633;60.024;18.770;2023-05-07T01:32:10;1.60;;;1.27;;
15067;SDS011;7633;60.024;18.770;2023-05-07T01:34:44;1.77;;;1.10;;
15067;SDS011;7633;60.024;18.770;2023-05-07T01:37:11;1.87;;;1.20;;
15067;SDS011;7633;60.024;18.770;2023-05-07T01:39:38;1.27;;;1.07;;
15067;SDS011;7633;60.024;18.770;2023-05-07T01:42:04;1.20;;;1.10;;
15067;SDS011;7633;60.024;18.770;2023-05-07T01:44:30;1.27;;;1.17;;
15067;SDS011;7633;60.024;18.770;2023-05-07T01:46:56;1.33;;;1.10;;
15067;SDS011;7633;60.024;18.770;2023-05-07T01:49:22;2.80;;;1.10;;
15067;SDS011;7633;60.024;18.770;2023-05-07T01:51:47;2.20;;;1.37;;
15067;SDS011;7633;60.024;18.770;2023-05-07T01:54:13;0.97;;;0.90;;
15067;SDS011;7633;60.024;18.770;2023-05-07T01:56:39;1.20;;;1.00;;
15067;SDS011;7633;60.024;18.770;2023-05-07T01:59:05;1.43;;;1.10;;
15067;SDS011;7633;60.024;18.770;2023-05-07T02:01:30;1.53;;;1.20;;
15067;SDS011;7633;60.024;18.770;2023-05-07T02:03:56;1.30;;;1.07;;
15067;SDS011;7633;60.024;18.770;2023-05-07T02:06:21;1.10;;;1.00;;
15067;SDS011;7633;60.024;18.770;2023-05-07T02:08:47;2.23;;;1.03;;
15067;SDS011;7633;60.024;18.770;2023-05-07T02:11:13;1.00;;;0.90;;
15067;SDS011;7633;60.024;18.770;2023-05-07T02:13:39;1.40;;;1.10;;
15067;SDS011;7633;60.024;18.770;2023-05-07T02:16:04;1.10;;;1.00;;
15067;SDS011;7633;60.024;18.770;2023-05-07T02:18:30;1.30;;;1.00;;
15067;SDS011;7633;60.024;18.770;2023-05-07T02:20:56;1.57;;;1.30;;
15067;SDS011;7633;60.024;18.770;2023-05-07T02:23:22;1.17;;;1.07;;
15067;SDS011;7633;60.024;18.770;2023-05-07T02:25:47;2.30;;;1.40;;
15067;SDS011;7633;60.024;18.770;2023-05-07T02:28:13;1.37;;;1.00;;
15067;SDS011;7633;60.024;18.770;2023-05-07T02:30:38;1.27;;;1.17;;
15067;SDS011;7633;60.024;18.770;2023-05-07T02:33:03;2.10;;;1.30;;
15067;SDS011;7633;60.024;18.770;2023-05-07T02:35:29;1.67;;;1.30;;
15067;SDS011;7633;60.024;18.770;2023-05-07T02:37:54;1.67;;;1.30;;
15067;SDS011;7633;60.024;18.770;2023-05-07T02:40:20;1.30;;;1.20;;
15067;SDS011;7633;60.024;18.770;2023-05-07T02:42:45;1.37;;;1.10;;
15067;SDS011;7633;60.024;18.770;2023-05-07T02:45:11;1.53;;;1.20;;
15067;SDS011;7633;60.024;18.770;2023-05-07T02:47:36;1.37;;;1.10;;
15067;SDS011;7633;60.024;18.770;2023-05-07T02:50:02;1.77;;;1.20;;
15067;SDS011;7633;60.024;18.770;2023-05-07T02:52:28;1.17;;;1.07;;
15067;SDS011;7633;60.024;18.770;2023-05-07T02:54:53;1.23;;;1.13;;
15067;SDS011;7633;60.024;18.770;2023-05-07T02:57:18;1.30;;;1.20;;
15067;SDS011;7633;60.024;18.770;2023-05-07T02:59:44;1.20;;;1.03;;
15067;SDS011;7633;60.024;18.770;2023-05-07T03:02:09;1.40;;;1.10;;
15067;SDS011;7633;60.024;18.770;2023-05-07T03:04:35;1.63;;;1.50;;
15067;SDS011;7633;60.024;18.770;2023-05-07T03:07:02;1.10;;;1.00;;
15067;SDS011;7633;60.024;18.770;2023-05-07T03:09:27;1.57;;;0.90;;
15067;SDS011;7633;60.024;18.770;2023-05-07T03:11:52;1.33;;;1.23;;
15067;SDS011;7633;60.024;18.770;2023-05-07T03:14:18;1.20;;;1.10;;
15067;SDS011;7633;60.024;18.770;2023-05-07T03:16:43;1.47;;;1.23;;
15067;SDS011;7633;60.024;18.770;2023-05-07T03:19:09;1.10;;;1.00;;
15067;SDS011;7633;60.024;18.770;2023-05-07T03:21:34;1.37;;;1.17;;
15067;SDS011;7633;60.024;18.770;2023-05-07T03:23:59;1.27;;;1.17;;
15067;SDS011;7633;60.024;18.770;2023-05-07T03:26:25;2.43;;;1.20;;
15067;SDS011;7633;60.024;18.770;2023-05-07T03:28:51;2.67;;;1.20;;
15067;SDS011;7633;60.024;18.770;2023-05-07T03:31:17;1.20;;;1.10;;
15067;SDS011;7633;60.024;18.770;2023-05-07T03:33:51;1.97;;;1.20;;
15067;SDS011;7633;60.024;18.770;2023-05-07T03:36:17;1.40;;;1.30;;
15067;SDS011;7633;60.024;18.770;2023-05-07T03:38:43;1.67;;;1.23;;
15067;SDS011;7633;60.024;18.770;2023-05-07T03:41:08;1.10;;;1.00;;
15067;SDS011;7633;60.024;18.770;2023-05-07T03:43:33;1.40;;;1.30;;
15067;SDS011;7633;60.024;18.770;2023-05-07T03:45:59;1.23;;;1.13;;
15067;SDS011;7633;60.024;18.770;2023-05-07T03:48:24;1.23;;;1.00;;
15067;SDS011;7633;60.024;18.770;2023-05-07T03:50:49;1.17;;;1.07;;
15067;SDS011;7633;60.024;18.770;2023-05-07T03:53:15;1.40;;;1.30;;
15067;SDS011;7633;60.024;18.770;2023-05-07T03:55:40;1.77;;;1.30;;
15067;SDS011;7633;60.024;18.770;2023-05-07T03:58:06;1.30;;;1.20;;
15067;SDS011;7633;60.024;18.770;2023-05-07T04:00:31;1.47;;;1.30;;
15067;SDS011;7633;60.024;18.770;2023-05-07T04:02:59;1.87;;;1.20;;
15067;SDS011;7633;60.024;18.770;2023-05-07T04:05:25;1.73;;;1.30;;
15067;SDS011;7633;60.024;18.770;2023-05-07T04:07:50;1.33;;;1.20;;
15067;SDS011;7633;60.024;18.770;2023-05-07T04:10:15;1.20;;;1.10;;
15067;SDS011;7633;60.024;18.770;2023-05-07T04:12:41;2.60;;;1.13;;
15067;SDS011;7633;60.024;18.770;2023-05-07T04:15:06;3.40;;;1.60;;
15067;SDS011;7633;60.024;18.770;2023-05-07T04:17:32;1.30;;;1.20;;
15067;SDS011;7633;60.024;18.770;2023-05-07T04:19:57;1.30;;;1.20;;
15067;SDS011;7633;60.024;18.770;2023-05-07T04:22:23;2.50;;;1.87;;
15067;SDS011;7633;60.024;18.770;2023-05-07T04:24:48;2.67;;;1.50;;
15067;SDS011;7633;60.024;18.770;2023-05-07T04:27:14;1.70;;;1.60;;
15067;SDS011;7633;60.024;18.770;2023-05-07T04:29:39;2.87;;;1.43;;
15067;SDS011;7633;60.024;18.770;2023-05-07T04:32:08;1.50;;;1.40;;
15067;SDS011;7633;60.024;18.770;2023-05-07T04:34:34;1.40;;;1.20;;
15067;SDS011;7633;60.024;18.770;2023-05-07T04:36:59;2.03;;;1.60;;
15067;SDS011;7633;60.024;18.770;2023-05-07T04:39:25;3.70;;;1.73;;
15067;SDS011;7633;60.024;18.770;2023-05-07T04:41:51;2.03;;;1.60;;
15067;SDS011;7633;60.024;18.770;2023-05-07T04:44:16;1.43;;;1.27;;
15067;SDS011;7633;60.024;18.770;2023-05-07T04:46:42;1.63;;;1.20;;
15067;SDS011;7633;60.024;18.770;2023-05-07T04:49:09;2.17;;;1.73;;
15067;SDS011;7633;60.024;18.770;2023-05-07T04:51:35;1.60;;;1.50;;
15067;SDS011;7633;60.024;18.770;2023-05-07T04:54:01;1.70;;;1.30;;
15067;SDS011;7633;60.024;18.770;2023-05-07T04:56:27;1.57;;;1.30;;
15067;SDS011;7633;60.024;18.770;2023-05-07T04:58:53;1.20;;;0.93;;
15067;SDS011;7633;60.024;18.770;2023-05-07T05:01:18;1.77;;;1.23;;
15067;SDS011;7633;60.024;18.770;2023-05-07T05:03:43;1.30;;;1.20;;
15067;SDS011;7633;60.024;18.770;2023-05-07T05:06:09;1.40;;;1.30;;
15067;SDS011;7633;60.024;18.770;2023-05-07T05:08:34;1.90;;;1.47;;
15067;SDS011;7633;60.024;18.770;2023-05-07T05:11:00;1.23;;;1.17;;
15067;SDS011;7633;60.024;18.770;2023-05-07T05:13:26;2.30;;;1.77;;
15067;SDS011;7633;60.024;18.770;2023-05-07T05:15:51;1.63;;;1.37;;
15067;SDS011;7633;60.024;18.770;2023-05-07T05:18:16;1.93;;;1.40;;
15067;SDS011;7633;60.024;18.770;2023-05-07T05:20:42;1.70;;;1.00;;
15067;SDS011;7633;60.024;18.770;2023-05-07T05:23:07;0.40;;;0.40;;
15067;SDS011;7633;60.024;18.770;2023-05-07T05:25:33;2.30;;;1.00;;
15067;SDS011;7633;60.024;18.770;2023-05-07T05:27:59;1.50;;;1.17;;
15067;SDS011;7633;60.024;18.770;2023-05-07T05:30:25;1.17;;;0.90;;
15067;SDS011;7633;60.024;18.770;2023-05-07T05:32:50;1.60;;;1.10;;
15067;SDS011;7633;60.024;18.770;2023-05-07T05:35:16;0.30;;;0.30;;
15067;SDS011;7633;60.024;18.770;2023-05-07T05:37:41;1.20;;;1.10;;
15067;SDS011;7633;60.024;18.770;2023-05-07T05:40:07;1.10;;;0.90;;
15067;SDS011;7633;60.024;18.770;2023-05-07T05:42:32;0.80;;;0.80;;
15067;SDS011;7633;60.024;18.770;2023-05-07T05:44:58;0.70;;;0.70;;
15067;SDS011;7633;60.024;18.770;2023-05-07T05:47:23;0.30;;;0.20;;
15067;SDS011;7633;60.024;18.770;2023-05-07T05:49:48;1.40;;;0.90;;
15067;SDS011;7633;60.024;18.770;2023-05-07T05:52:14;1.13;;;0.90;;
15067;SDS011;7633;60.024;18.770;2023-05-07T05:54:39;1.27;;;0.73;;
15067;SDS011;7633;60.024;18.770;2023-05-07T05:57:05;1.07;;;0.97;;
15067;SDS011;7633;60.024;18.770;2023-05-07T05:59:31;1.10;;;0.63;;
15067;SDS011;7633;60.024;18.770;2023-05-07T06:01:56;1.90;;;0.80;;
15067;SDS011;7633;60.024;18.770;2023-05-07T06:04:21;1.10;;;0.83;;
15067;SDS011;7633;60.024;18.770;2023-05-07T06:06:47;1.20;;;1.10;;
15067;SDS011;7633;60.024;18.770;2023-05-07T06:09:13;0.67;;;0.60;;
15067;SDS011;7633;60.024;18.770;2023-05-07T06:11:38;0.43;;;0.43;;
15067;SDS011;7633;60.024;18.770;2023-05-07T06:14:06;0.37;;;0.30;;
15067;SDS011;7633;60.024;18.770;2023-05-07T06:16:31;1.70;;;1.10;;
15067;SDS011;7633;60.024;18.770;2023-05-07T06:18:56;0.90;;;0.90;;
15067;SDS011;7633;60.024;18.770;2023-05-07T06:21:22;1.90;;;0.83;;
15067;SDS011;7633;60.024;18.770;2023-05-07T06:23:48;0.63;;;0.60;;
15067;SDS011;7633;60.024;18.770;2023-05-07T06:26:13;2.70;;;0.90;;
15067;SDS011;7633;60.024;18.770;2023-05-07T06:28:39;0.40;;;0.40;;
15067;SDS011;7633;60.024;18.770;2023-05-07T06:31:14;0.57;;;0.57;;
15067;SDS011;7633;60.024;18.770;2023-05-07T06:33:39;2.40;;;0.90;;
15067;SDS011;7633;60.024;18.770;2023-05-07T06:36:05;0.50;;;0.50;;
15067;SDS011;7633;60.024;18.770;2023-05-07T06:38:31;1.07;;;0.80;;
15067;SDS011;7633;60.024;18.770;2023-05-07T06:40:56;0.40;;;0.40;;
15067;SDS011;7633;60.024;18.770;2023-05-07T06:43:22;1.20;;;0.70;;
15067;SDS011;7633;60.024;18.770;2023-05-07T06:45:47;0.50;;;0.50;;
15067;SDS011;7633;60.024;18.770;2023-05-07T06:48:13;1.53;;;0.83;;
15067;SDS011;7633;60.024;18.770;2023-05-07T06:50:38;1.50;;;0.70;;
15067;SDS011;7633;60.024;18.770;2023-05-07T06:53:03;1.57;;;0.60;;
15067;SDS011;7633;60.024;18.770;2023-05-07T06:55:29;0.33;;;0.33;;
15067;SDS011;7633;60.024;18.770;2023-05-07T06:57:54;0.87;;;0.80;;
15067;SDS011;7633;60.024;18.770;2023-05-07T07:00:20;0.97;;;0.67;;
15067;SDS011;7633;60.024;18.770;2023-05-07T07:02:45;0.93;;;0.40;;
15067;SDS011;7633;60.024;18.770;2023-05-07T07:05:11;0.80;;;0.70;;
15067;SDS011;7633;60.024;18.770;2023-05-07T07:07:36;0.70;;;0.60;;
15067;SDS011;7633;60.024;18.770;2023-05-07T07:10:02;0.70;;;0.70;;
15067;SDS011;7633;60.024;18.770;2023-05-07T07:12:29;0.70;;;0.60;;
15067;SDS011;7633;60.024;18.770;2023-05-07T07:14:55;0.63;;;0.60;;
15067;SDS011;7633;60.024;18.770;2023-05-07T07:17:20;0.70;;;0.70;;
15067;SDS011;7633;60.024;18.770;2023-05-07T07:19:46;1.17;;;0.83;;
15067;SDS011;7633;60.024;18.770;2023-05-07T07:22:11;2.03;;;0.90;;
15067;SDS011;7633;60.024;18.770;2023-05-07T07:24:36;2.00;;;0.90;;
15067;SDS011;7633;60.024;18.770;2023-05-07T07:27:02;2.20;;;0.87;;
15067;SDS011;7633;60.024;18.770;2023-05-07T07:29:27;0.67;;;0.67;;
15067;SDS011;7633;60.024;18.770;2023-05-07T07:31:53;2.13;;;0.87;;
15067;SDS011;7633;60.024;18.770;2023-05-07T07:34:18;1.67;;;0.70;;
15067;SDS011;7633;60.024;18.770;2023-05-07T07:36:43;1.13;;;0.40;;
15067;SDS011;7633;60.024;18.770;2023-05-07T07:39:09;0.70;;;0.70;;
15067;SDS011;7633;60.024;18.770;2023-05-07T07:41:34;1.13;;;0.77;;
15067;SDS011;7633;60.024;18.770;2023-05-07T07:44:00;2.83;;;1.00;;
15067;SDS011;7633;60.024;18.770;2023-05-07T07:46:25;0.70;;;0.70;;
15067;SDS011;7633;60.024;18.770;2023-05-07T07:48:51;0.73;;;0.70;;
15067;SDS011;7633;60.024;18.770;2023-05-07T07:51:17;1.60;;;1.00;;
15067;SDS011;7633;60.024;18.770;2023-05-07T07:53:42;0.80;;;0.80;;
15067;SDS011;7633;60.024;18.770;2023-05-07T07:56:08;0.90;;;0.80;;
15067;SDS011;7633;60.024;18.770;2023-05-07T07:58:34;1.03;;;0.70;;
15067;SDS011;7633;60.024;18.770;2023-05-07T08:01:00;1.37;;;0.90;;
15067;SDS011;7633;60.024;18.770;2023-05-07T08:03:26;1.27;;;0.80;;
15067;SDS011;7633;60.024;18.770;2023-05-07T08:05:51;1.17;;;0.60;;
15067;SDS011;7633;60.024;18.770;2023-05-07T08:08:16;1.20;;;0.87;;
15067;SDS011;7633;60.024;18.770;2023-05-07T08:10:42;0.80;;;0.80;;
15067;SDS011;7633;60.024;18.770;2023-05-07T08:13:07;1.37;;;0.83;;
15067;SDS011;7633;60.024;18.770;2023-05-07T08:15:33;1.33;;;1.10;;
15067;SDS011;7633;60.024;18.770;2023-05-07T08:17:58;1.00;;;0.90;;
15067;SDS011;7633;60.024;18.770;2023-05-07T08:20:25;1.17;;;1.07;;
15067;SDS011;7633;60.024;18.770;2023-05-07T08:22:51;0.57;;;0.53;;
15067;SDS011;7633;60.024;18.770;2023-05-07T08:25:16;0.70;;;0.70;;
15067;SDS011;7633;60.024;18.770;2023-05-07T08:27:41;0.70;;;0.70;;
15067;SDS011;7633;60.024;18.770;2023-05-07T08:30:07;1.10;;;1.00;;
15067;SDS011;7633;60.024;18.770;2023-05-07T08:32:32;0.70;;;0.70;;
15067;SDS011;7633;60.024;18.770;2023-05-07T08:34:58;0.60;;;0.60;;
15067;SDS011;7633;60.024;18.770;2023-05-07T08:37:23;0.80;;;0.80;;
15067;SDS011;7633;60.024;18.770;2023-05-07T08:39:48;0.80;;;0.50;;
15067;SDS011;7633;60.024;18.770;2023-05-07T08:42:14;0.97;;;0.80;;
15067;SDS011;7633;60.024;18.770;2023-05-07T08:44:41;1.17;;;0.90;;
15067;SDS011;7633;60.024;18.770;2023-05-07T08:47:10;0.73;;;0.73;;
15067;SDS011;7633;60.024;18.770;2023-05-07T08:49:35;1.03;;;0.90;;
15067;SDS011;7633;60.024;18.770;2023-05-07T08:52:01;0.90;;;0.90;;
15067;SDS011;7633;60.024;18.770;2023-05-07T08:54:27;1.57;;;1.00;;
15067;SDS011;7633;60.024;18.770;2023-05-07T08:56:54;0.80;;;0.80;;
15067;SDS011;7633;60.024;18.770;2023-05-07T08:59:19;1.50;;;0.90;;
15067;SDS011;7633;60.024;18.770;2023-05-07T09:01:50;1.37;;;0.87;;
15067;SDS011;7633;60.024;18.770;2023-05-07T09:04:16;0.57;;;0.53;;
15067;SDS011;7633;60.024;18.770;2023-05-07T09:06:41;1.20;;;0.60;;
15067;SDS011;7633;60.024;18.770;2023-05-07T09:09:07;0.80;;;0.70;;
15067;SDS011;7633;60.024;18.770;2023-05-07T09:11:35;1.10;;;0.87;;
15067;SDS011;7633;60.024;18.770;2023-05-07T09:14:01;1.00;;;0.90;;
15067;SDS011;7633;60.024;18.770;2023-05-07T09:16:28;1.27;;;0.90;;
15067;SDS011;7633;60.024;18.770;2023-05-07T09:18:56;1.10;;;0.80;;
15067;SDS011;7633;60.024;18.770;2023-05-07T09:21:22;1.20;;;1.10;;
15067;SDS011;7633;60.024;18.770;2023-05-07T09:23:49;1.03;;;0.93;;
15067;SDS011;7633;60.024;18.770;2023-05-07T09:26:15;1.50;;;0.70;;
15067;SDS011;7633;60.024;18.770;2023-05-07T09:28:41;1.90;;;0.90;;
15067;SDS011;7633;60.024;18.770;2023-05-07T09:31:07;1.33;;;0.87;;
15067;SDS011;7633;60.024;18.770;2023-05-07T09:33:32;1.00;;;0.90;;
15067;SDS011;7633;60.024;18.770;2023-05-07T09:35:58;1.10;;;0.70;;
15067;SDS011;7633;60.024;18.770;2023-05-07T09:38:23;1.53;;;0.70;;
15067;SDS011;7633;60.024;18.770;2023-05-07T09:40:57;0.90;;;0.70;;
15067;SDS011;7633;60.024;18.770;2023-05-07T09:43:26;1.73;;;0.90;;
15067;SDS011;7633;60.024;18.770;2023-05-07T09:45:52;0.87;;;0.80;;
15067;SDS011;7633;60.024;18.770;2023-05-07T09:48:17;0.70;;;0.70;;
15067;SDS011;7633;60.024;18.770;2023-05-07T09:50:48;1.27;;;0.80;;
15067;SDS011;7633;60.024;18.770;2023-05-07T09:53:13;0.83;;;0.83;;
15067;SDS011;7633;60.024;18.770;2023-05-07T09:55:39;0.80;;;0.80;;
15067;SDS011;7633;60.024;18.770;2023-05-07T09:58:05;1.07;;;0.97;;
15067;SDS011;7633;60.024;18.770;2023-05-07T10:00:33;1.70;;;0.97;;
15067;SDS011;7633;60.024;18.770;2023-05-07T10:03:04;0.77;;;0.77;;
15067;SDS011;7633;60.024;18.770;2023-05-07T10:05:33;2.93;;;1.00;;
15067;SDS011;7633;60.024;18.770;2023-05-07T10:07:59;0.83;;;0.70;;
15067;SDS011;7633;60.024;18.770;2023-05-07T10:10:25;0.70;;;0.70;;
15067;SDS011;7633;60.024;18.770;2023-05-07T10:12:51;0.70;;;0.70;;
15067;SDS011;7633;60.024;18.770;2023-05-07T10:15:17;1.37;;;1.03;;
15067;SDS011;7633;60.024;18.770;2023-05-07T10:17:42;0.60;;;0.60;;
15067;SDS011;7633;60.024;18.770;2023-05-07T10:20:07;0.90;;;0.80;;
15067;SDS011;7633;60.024;18.770;2023-05-07T10:22:54;1.40;;;0.83;;
15067;SDS011;7633;60.024;18.770;2023-05-07T10:25:26;1.00;;;0.80;;
15067;SDS011;7633;60.024;18.770;2023-05-07T10:27:53;1.33;;;0.80;;
15067;SDS011;7633;60.024;18.770;2023-05-07T10:30:29;0.88;;;0.60;;
15067;SDS011;7633;60.024;18.770;2023-05-07T10:32:59;0.57;;;0.50;;
15067;SDS011;7633;60.024;18.770;2023-05-07T10:35:32;1.73;;;0.90;;
15067;SDS011;7633;60.024;18.770;2023-05-07T10:38:01;0.80;;;0.80;;
15067;SDS011;7633;60.024;18.770;2023-05-07T10:40:28;2.53;;;0.97;;
15067;SDS011;7633;60.024;18.770;2023-05-07T10:42:56;0.60;;;0.60;;
15067;SDS011;7633;60.024;18.770;2023-05-07T10:45:22;0.63;;;0.43;;
15067;SDS011;7633;60.024;18.770;2023-05-07T10:50:33;1.30;;;1.00;;
15067;SDS011;7633;60.024;18.770;2023-05-07T10:56:42;0.68;;;0.68;;
15067;SDS011;7633;60.024;18.770;2023-05-07T10:58:42;0.98;;;0.90;;
15067;SDS011;7633;60.024;18.770;2023-05-07T11:01:07;1.02;;;0.95;;
15067;SDS011;7633;60.024;18.770;2023-05-07T11:03:33;0.95;;;0.63;;
15067;SDS011;7633;60.024;18.770;2023-05-07T11:06:12;0.57;;;0.57;;
15067;SDS011;7633;60.024;18.770;2023-05-07T11:08:54;1.00;;;0.90;;
15067;SDS011;7633;60.024;18.770;2023-05-07T11:11:43;0.95;;;0.70;;
15067;SDS011;7633;60.024;18.770;2023-05-07T11:14:05;0.93;;;0.70;;
15067;SDS011;7633;60.024;18.770;2023-05-07T11:16:31;0.98;;;0.80;;
15067;SDS011;7633;60.024;18.770;2023-05-07T11:18:58;0.80;;;0.80;;
15067;SDS011;7633;60.024;18.770;2023-05-07T11:21:37;0.95;;;0.85;;
15067;SDS011;7633;60.024;18.770;2023-05-07T11:24:04;1.30;;;1.20;;
15067;SDS011;7633;60.024;18.770;2023-05-07T11:26:41;1.35;;;0.90;;
15067;SDS011;7633;60.024;18.770;2023-05-07T11:29:11;0.98;;;0.70;;
15067;SDS011;7633;60.024;18.770;2023-05-07T11:31:36;0.80;;;0.80;;
15067;SDS011;7633;60.024;18.770;2023-05-07T11:34:02;1.00;;;0.85;;
15067;SDS011;7633;60.024;18.770;2023-05-07T11:36:30;1.25;;;0.90;;
15067;SDS011;7633;60.024;18.770;2023-05-07T11:38:56;0.80;;;0.80;;
15067;SDS011;7633;60.024;18.770;2023-05-07T11:41:22;1.08;;;0.98;;
15067;SDS011;7633;60.024;18.770;2023-05-07T11:43:55;1.15;;;0.60;;
15067;SDS011;7633;60.024;18.770;2023-05-07T11:46:21;0.73;;;0.70;;
15067;SDS011;7633;60.024;18.770;2023-05-07T11:48:49;0.90;;;0.90;;
15067;SDS011;7633;60.024;18.770;2023-05-07T11:51:18;2.72;;;0.98;;
15067;SDS011;7633;60.024;18.770;2023-05-07T11:53:44;1.05;;;0.70;;
15067;SDS011;7633;60.024;18.770;2023-05-07T11:56:13;1.50;;;1.10;;
15067;SDS011;7633;60.024;18.770;2023-05-07T11:58:39;1.25;;;0.90;;
15067;SDS011;7633;60.024;18.770;2023-05-07T12:01:07;1.13;;;0.98;;
15067;SDS011;7633;60.024;18.770;2023-05-07T12:03:32;1.20;;;1.10;;
15067;SDS011;7633;60.024;18.770;2023-05-07T12:05:59;1.58;;;0.90;;
15067;SDS011;7633;60.024;18.770;2023-05-07T12:08:25;1.80;;;0.90;;
15067;SDS011;7633;60.024;18.770;2023-05-07T12:10:53;0.80;;;0.80;;
15067;SDS011;7633;60.024;18.770;2023-05-07T12:13:19;1.13;;;0.90;;
15067;SDS011;7633;60.024;18.770;2023-05-07T12:15:45;0.82;;;0.82;;
15067;SDS011;7633;60.024;18.770;2023-05-07T12:18:11;1.05;;;0.90;;
15067;SDS011;7633;60.024;18.770;2023-05-07T12:20:37;0.77;;;0.70;;
15067;SDS011;7633;60.024;18.770;2023-05-07T12:23:03;1.17;;;0.90;;
15067;SDS011;7633;60.024;18.770;2023-05-07T12:25:35;1.85;;;0.77;;
15067;SDS011;7633;60.024;18.770;2023-05-07T12:28:02;1.58;;;1.10;;
15067;SDS011;7633;60.024;18.770;2023-05-07T12:30:30;1.20;;;1.10;;
15067;SDS011;7633;60.024;18.770;2023-05-07T12:32:55;1.27;;;1.00;;
15067;SDS011;7633;60.024;18.770;2023-05-07T12:35:27;1.48;;;1.38;;
15067;SDS011;7633;60.024;18.770;2023-05-07T12:37:55;1.00;;;0.90;;
15067;SDS011;7633;60.024;18.770;2023-05-07T12:40:20;1.23;;;1.00;;
15067;SDS011;7633;60.024;18.770;2023-05-07T12:42:46;0.93;;;0.90;;
15067;SDS011;7633;60.024;18.770;2023-05-07T12:45:12;1.00;;;0.65;;
15067;SDS011;7633;60.024;18.770;2023-05-07T12:47:55;1.02;;;0.93;;
15067;SDS011;7633;60.024;18.770;2023-05-07T12:50:21;1.23;;;0.90;;
15067;SDS011;7633;60.024;18.770;2023-05-07T12:52:49;1.23;;;1.13;;
15067;SDS011;7633;60.024;18.770;2023-05-07T12:55:15;1.13;;;0.98;;
15067;SDS011;7633;60.024;18.770;2023-05-07T12:57:41;1.20;;;1.10;;
15067;SDS011;7633;60.024;18.770;2023-05-07T13:00:07;1.15;;;1.00;;
15067;SDS011;7633;60.024;18.770;2023-05-07T13:02:34;1.75;;;1.17;;
15067;SDS011;7633;60.024;18.770;2023-05-07T13:05:00;0.80;;;0.80;;
15067;SDS011;7633;60.024;18.770;2023-05-07T13:07:26;1.60;;;1.00;;
15067;SDS011;7633;60.024;18.770;2023-05-07T13:09:51;1.15;;;1.00;;
15067;SDS011;7633;60.024;18.770;2023-05-07T13:12:17;2.35;;;1.10;;
15067;SDS011;7633;60.024;18.770;2023-05-07T13:14:42;1.02;;;0.90;;
15067;SDS011;7633;60.024;18.770;2023-05-07T13:17:08;1.60;;;1.00;;
15067;SDS011;7633;60.024;18.770;2023-05-07T13:19:33;1.42;;;1.00;;
15067;SDS011;7633;60.024;18.770;2023-05-07T13:22:00;1.75;;;1.08;;
15067;SDS011;7633;60.024;18.770;2023-05-07T13:24:25;2.58;;;1.30;;
15067;SDS011;7633;60.024;18.770;2023-05-07T13:26:50;1.30;;;0.90;;
15067;SDS011;7633;60.024;18.770;2023-05-07T13:29:16;0.85;;;0.85;;
15067;SDS011;7633;60.024;18.770;2023-05-07T13:31:42;1.08;;;1.02;;
15067;SDS011;7633;60.024;18.770;2023-05-07T13:34:09;0.90;;;0.90;;
15067;SDS011;7633;60.024;18.770;2023-05-07T13:36:38;1.35;;;1.00;;
15067;SDS011;7633;60.024;18.770;2023-05-07T13:39:04;0.80;;;0.80;;
15067;SDS011;7633;60.024;18.770;2023-05-07T13:41:31;1.83;;;1.00;;
15067;SDS011;7633;60.024;18.770;2023-05-07T13:43:56;1.00;;;0.90;;
15067;SDS011;7633;60.024;18.770;2023-05-07T13:46:22;1.25;;;1.02;;
15067;SDS011;7633;60.024;18.770;2023-05-07T13:48:47;0.95;;;0.95;;
15067;SDS011;7633;60.024;18.770;2023-05-07T13:51:13;1.25;;;0.82;;
15067;SDS011;7633;60.024;18.770;2023-05-07T13:53:38;1.02;;;0.75;;
15067;SDS011;7633;60.024;18.770;2023-05-07T13:56:04;1.33;;;1.08;;
15067;SDS011;7633;60.024;18.770;2023-05-07T13:58:30;2.22;;;1.02;;
15067;SDS011;7633;60.024;18.770;2023-05-07T14:00:55;1.20;;;1.10;;
15067;SDS011;7633;60.024;18.770;2023-05-07T14:03:20;1.30;;;1.20;;
15067;SDS011;7633;60.024;18.770;2023-05-07T14:05:46;1.02;;;0.90;;
15067;SDS011;7633;60.024;18.770;2023-05-07T14:08:11;0.93;;;0.90;;
15067;SDS011;7633;60.024;18.770;2023-05-07T14:10:43;1.00;;;0.93;;
15067;SDS011;7633;60.024;18.770;2023-05-07T14:13:09;1.27;;;0.90;;
15067;SDS011;7633;60.024;18.770;2023-05-07T14:15:35;1.27;;;0.90;;
15067;SDS011;7633;60.024;18.770;2023-05-07T14:18:01;1.33;;;1.00;;
15067;SDS011;7633;60.024;18.770;2023-05-07T14:20:28;1.10;;;1.00;;
15067;SDS011;7633;60.024;18.770;2023-05-07T14:22:55;1.02;;;0.90;;
15067;SDS011;7633;60.024;18.770;2023-05-07T14:25:20;1.20;;;1.10;;
15067;SDS011;7633;60.024;18.770;2023-05-07T14:27:46;1.17;;;1.00;;
15067;SDS011;7633;60.024;18.770;2023-05-07T14:30:12;1.55;;;0.75;;
15067;SDS011;7633;60.024;18.770;2023-05-07T14:32:40;1.08;;;0.80;;
15067;SDS011;7633;60.024;18.770;2023-05-07T14:35:05;1.42;;;1.13;;
15067;SDS011;7633;60.024;18.770;2023-05-07T14:37:31;1.00;;;0.80;;
15067;SDS011;7633;60.024;18.770;2023-05-07T14:39:56;0.98;;;0.82;;
15067;SDS011;7633;60.024;18.770;2023-05-07T14:42:21;2.30;;;1.10;;
15067;SDS011;7633;60.024;18.770;2023-05-07T14:44:47;1.00;;;0.90;;
15067;SDS011;7633;60.024;18.770;2023-05-07T14:47:13;1.80;;;1.02;;
15067;SDS011;7633;60.024;18.770;2023-05-07T14:49:39;1.85;;;0.95;;
15067;SDS011;7633;60.024;18.770;2023-05-07T14:52:05;1.70;;;1.00;;